sensor_id;sensor_type;location;lat;lon;timestamp;P1;durP1;ratioP1;P2;durP2;ratioP2
80313;SDS011;69628;47.516;18.828;2023-08-06T00:00:07;10.85;;;4.28;;
80313;SDS011;69628;47.516;18.828;2023-08-06T00:01:08;7.95;;;4.28;;
80313;SDS011;69628;47.516;18.828;2023-08-06T00:02:08;9.45;;;4.70;;
80313;SDS011;69628;47.516;18.828;2023-08-06T00:03:09;7.47;;;4.43;;
80313;SDS011;69628;47.516;18.828;2023-08-06T00:04:09;12.40;;;4.95;;
80313;SDS011;69628;47.516;18.828;2023-08-06T00:05:10;8.52;;;4.88;;
80313;SDS011;69628;47.516;18.828;2023-08-06T00:06:10;6.63;;;3.92;;
80313;SDS011;69628;47.516;18.828;2023-08-06T00:07:10;9.38;;;4.30;;
80313;SDS011;69628;47.516;18.828;2023-08-06T00:08:11;7.65;;;4.35;;
80313;SDS011;69628;47.516;18.828;2023-08-06T00:09:11;9.70;;;4.63;;
80313;SDS011;69628;47.516;18.828;2023-08-06T00:10:11;13.35;;;4.38;;
80313;SDS011;69628;47.516;18.828;2023-08-06T00:11:12;8.25;;;4.55;;
80313;SDS011;69628;47.516;18.828;2023-08-06T00:12:13;7.60;;;4.85;;
80313;SDS011;69628;47.516;18.828;2023-08-06T00:13:13;8.82;;;5.45;;
80313;SDS011;69628;47.516;18.828;2023-08-06T00:14:13;8.93;;;4.93;;
80313;SDS011;69628;47.516;18.828;2023-08-06T00:15:15;6.57;;;4.05;;
80313;SDS011;69628;47.516;18.828;2023-08-06T00:16:15;8.88;;;5.03;;
80313;SDS011;69628;47.516;18.828;2023-08-06T00:17:16;9.40;;;5.28;;
80313;SDS011;69628;47.516;18.828;2023-08-06T00:18:16;6.70;;;4.25;;
80313;SDS011;69628;47.516;18.828;2023-08-06T00:19:17;8.70;;;4.90;;
80313;SDS011;69628;47.516;18.828;2023-08-06T00:20:17;7.40;;;4.35;;
80313;SDS011;69628;47.516;18.828;2023-08-06T00:21:18;8.95;;;4.78;;
80313;SDS011;69628;47.516;18.828;2023-08-06T00:22:18;7.85;;;4.55;;
80313;SDS011;69628;47.516;18.828;2023-08-06T00:23:18;8.27;;;4.45;;
80313;SDS011;69628;47.516;18.828;2023-08-06T00:24:21;7.70;;;4.22;;
80313;SDS011;69628;47.516;18.828;2023-08-06T00:25:22;9.00;;;4.40;;
80313;SDS011;69628;47.516;18.828;2023-08-06T00:26:22;8.00;;;4.88;;
80313;SDS011;69628;47.516;18.828;2023-08-06T00:27:22;9.30;;;4.65;;
80313;SDS011;69628;47.516;18.828;2023-08-06T00:28:23;6.32;;;4.22;;
80313;SDS011;69628;47.516;18.828;2023-08-06T00:29:23;8.95;;;4.55;;
80313;SDS011;69628;47.516;18.828;2023-08-06T00:30:24;7.18;;;4.57;;
80313;SDS011;69628;47.516;18.828;2023-08-06T00:31:24;8.75;;;5.15;;
80313;SDS011;69628;47.516;18.828;2023-08-06T00:32:24;8.23;;;3.97;;
80313;SDS011;69628;47.516;18.828;2023-08-06T00:33:25;9.05;;;5.15;;
80313;SDS011;69628;47.516;18.828;2023-08-06T00:34:25;7.97;;;4.82;;
80313;SDS011;69628;47.516;18.828;2023-08-06T00:35:25;6.32;;;4.40;;
80313;SDS011;69628;47.516;18.828;2023-08-06T00:36:26;7.97;;;4.53;;
80313;SDS011;69628;47.516;18.828;2023-08-06T00:37:26;8.77;;;4.75;;
80313;SDS011;69628;47.516;18.828;2023-08-06T00:38:27;7.70;;;4.85;;
80313;SDS011;69628;47.516;18.828;2023-08-06T00:39:27;10.60;;;5.28;;
80313;SDS011;69628;47.516;18.828;2023-08-06T00:40:27;7.30;;;4.30;;
80313;SDS011;69628;47.516;18.828;2023-08-06T00:41:30;7.68;;;4.20;;
80313;SDS011;69628;47.516;18.828;2023-08-06T00:42:30;6.88;;;4.32;;
80313;SDS011;69628;47.516;18.828;2023-08-06T00:43:30;9.18;;;4.38;;
80313;SDS011;69628;47.516;18.828;2023-08-06T00:44:31;7.68;;;4.45;;
80313;SDS011;69628;47.516;18.828;2023-08-06T00:45:33;7.00;;;4.00;;
80313;SDS011;69628;47.516;18.828;2023-08-06T00:46:34;6.70;;;4.10;;
80313;SDS011;69628;47.516;18.828;2023-08-06T00:47:35;6.93;;;4.22;;
80313;SDS011;69628;47.516;18.828;2023-08-06T00:48:35;9.13;;;4.07;;
80313;SDS011;69628;47.516;18.828;2023-08-06T00:49:36;7.47;;;4.15;;
80313;SDS011;69628;47.516;18.828;2023-08-06T00:50:37;8.20;;;4.95;;
80313;SDS011;69628;47.516;18.828;2023-08-06T00:51:37;7.03;;;4.60;;
80313;SDS011;69628;47.516;18.828;2023-08-06T00:52:38;9.07;;;4.35;;
80313;SDS011;69628;47.516;18.828;2023-08-06T00:53:38;7.82;;;4.45;;
80313;SDS011;69628;47.516;18.828;2023-08-06T00:54:39;6.95;;;4.00;;
80313;SDS011;69628;47.516;18.828;2023-08-06T00:55:40;6.45;;;4.10;;
80313;SDS011;69628;47.516;18.828;2023-08-06T00:56:40;8.70;;;4.68;;
80313;SDS011;69628;47.516;18.828;2023-08-06T00:57:42;8.75;;;4.68;;
80313;SDS011;69628;47.516;18.828;2023-08-06T00:58:42;8.15;;;4.57;;
80313;SDS011;69628;47.516;18.828;2023-08-06T00:59:43;6.55;;;4.30;;
80313;SDS011;69628;47.516;18.828;2023-08-06T01:00:43;6.70;;;4.38;;
80313;SDS011;69628;47.516;18.828;2023-08-06T01:01:44;9.57;;;4.45;;
80313;SDS011;69628;47.516;18.828;2023-08-06T01:02:45;6.72;;;4.35;;
80313;SDS011;69628;47.516;18.828;2023-08-06T01:03:46;7.07;;;4.00;;
80313;SDS011;69628;47.516;18.828;2023-08-06T01:04:46;9.57;;;4.50;;
80313;SDS011;69628;47.516;18.828;2023-08-06T01:05:46;8.32;;;3.65;;
80313;SDS011;69628;47.516;18.828;2023-08-06T01:06:47;8.85;;;4.18;;
80313;SDS011;69628;47.516;18.828;2023-08-06T01:09:57;6.38;;;3.95;;
80313;SDS011;69628;47.516;18.828;2023-08-06T01:13:42;6.53;;;3.67;;
80313;SDS011;69628;47.516;18.828;2023-08-06T01:16:07;4.60;;;3.25;;
80313;SDS011;69628;47.516;18.828;2023-08-06T01:17:07;6.28;;;3.47;;
80313;SDS011;69628;47.516;18.828;2023-08-06T01:18:08;4.93;;;3.20;;
80313;SDS011;69628;47.516;18.828;2023-08-06T01:19:18;5.20;;;3.45;;
80313;SDS011;69628;47.516;18.828;2023-08-06T01:20:19;5.35;;;3.13;;
80313;SDS011;69628;47.516;18.828;2023-08-06T01:21:19;4.32;;;3.13;;
80313;SDS011;69628;47.516;18.828;2023-08-06T01:22:20;5.22;;;3.50;;
80313;SDS011;69628;47.516;18.828;2023-08-06T01:23:20;7.63;;;3.35;;
80313;SDS011;69628;47.516;18.828;2023-08-06T01:24:20;7.53;;;3.63;;
80313;SDS011;69628;47.516;18.828;2023-08-06T01:25:21;6.43;;;3.75;;
80313;SDS011;69628;47.516;18.828;2023-08-06T01:27:28;4.70;;;2.92;;
80313;SDS011;69628;47.516;18.828;2023-08-06T01:29:49;5.50;;;3.20;;
80313;SDS011;69628;47.516;18.828;2023-08-06T01:31:05;6.97;;;3.45;;
80313;SDS011;69628;47.516;18.828;2023-08-06T01:32:10;6.75;;;3.60;;
80313;SDS011;69628;47.516;18.828;2023-08-06T01:33:14;5.53;;;3.03;;
80313;SDS011;69628;47.516;18.828;2023-08-06T01:34:17;4.45;;;3.05;;
80313;SDS011;69628;47.516;18.828;2023-08-06T01:35:18;6.00;;;3.67;;
80313;SDS011;69628;47.516;18.828;2023-08-06T01:36:19;5.82;;;3.80;;
80313;SDS011;69628;47.516;18.828;2023-08-06T01:37:20;6.18;;;3.88;;
80313;SDS011;69628;47.516;18.828;2023-08-06T01:38:20;6.38;;;3.28;;
80313;SDS011;69628;47.516;18.828;2023-08-06T01:39:21;5.88;;;3.47;;
80313;SDS011;69628;47.516;18.828;2023-08-06T01:40:22;5.07;;;3.30;;
80313;SDS011;69628;47.516;18.828;2023-08-06T01:41:22;9.77;;;4.15;;
80313;SDS011;69628;47.516;18.828;2023-08-06T01:42:23;7.50;;;3.20;;
80313;SDS011;69628;47.516;18.828;2023-08-06T01:43:23;6.47;;;3.65;;
80313;SDS011;69628;47.516;18.828;2023-08-06T01:44:23;5.97;;;3.65;;
80313;SDS011;69628;47.516;18.828;2023-08-06T01:45:24;6.40;;;3.63;;
80313;SDS011;69628;47.516;18.828;2023-08-06T01:46:24;6.13;;;3.45;;
80313;SDS011;69628;47.516;18.828;2023-08-06T01:47:25;10.13;;;3.38;;
80313;SDS011;69628;47.516;18.828;2023-08-06T01:48:25;6.63;;;3.50;;
80313;SDS011;69628;47.516;18.828;2023-08-06T01:49:25;6.80;;;3.15;;
80313;SDS011;69628;47.516;18.828;2023-08-06T01:50:26;5.00;;;3.15;;
80313;SDS011;69628;47.516;18.828;2023-08-06T01:51:26;5.13;;;3.25;;
80313;SDS011;69628;47.516;18.828;2023-08-06T01:52:27;5.22;;;3.40;;
80313;SDS011;69628;47.516;18.828;2023-08-06T01:53:27;4.43;;;2.70;;
80313;SDS011;69628;47.516;18.828;2023-08-06T01:54:28;6.38;;;3.45;;
80313;SDS011;69628;47.516;18.828;2023-08-06T01:55:29;3.53;;;2.60;;
80313;SDS011;69628;47.516;18.828;2023-08-06T01:56:30;4.35;;;3.00;;
80313;SDS011;69628;47.516;18.828;2023-08-06T01:57:30;6.03;;;3.40;;
80313;SDS011;69628;47.516;18.828;2023-08-06T01:58:31;3.83;;;2.75;;
80313;SDS011;69628;47.516;18.828;2023-08-06T01:59:31;7.90;;;3.33;;
80313;SDS011;69628;47.516;18.828;2023-08-06T02:00:31;15.40;;;2.97;;
80313;SDS011;69628;47.516;18.828;2023-08-06T02:01:32;5.53;;;3.28;;
80313;SDS011;69628;47.516;18.828;2023-08-06T02:02:32;12.73;;;3.17;;
80313;SDS011;69628;47.516;18.828;2023-08-06T02:03:33;4.18;;;2.72;;
80313;SDS011;69628;47.516;18.828;2023-08-06T02:04:34;8.23;;;3.30;;
80313;SDS011;69628;47.516;18.828;2023-08-06T02:05:34;4.68;;;2.92;;
80313;SDS011;69628;47.516;18.828;2023-08-06T02:06:35;5.00;;;2.95;;
80313;SDS011;69628;47.516;18.828;2023-08-06T02:07:35;4.75;;;2.90;;
80313;SDS011;69628;47.516;18.828;2023-08-06T02:08:35;5.00;;;2.90;;
80313;SDS011;69628;47.516;18.828;2023-08-06T02:09:36;4.55;;;2.80;;
80313;SDS011;69628;47.516;18.828;2023-08-06T02:10:36;2.88;;;2.22;;
80313;SDS011;69628;47.516;18.828;2023-08-06T02:11:37;3.22;;;2.20;;
80313;SDS011;69628;47.516;18.828;2023-08-06T02:12:37;4.30;;;2.85;;
80313;SDS011;69628;47.516;18.828;2023-08-06T02:13:37;4.03;;;2.60;;
80313;SDS011;69628;47.516;18.828;2023-08-06T02:14:38;3.28;;;2.40;;
80313;SDS011;69628;47.516;18.828;2023-08-06T02:15:44;4.43;;;2.63;;
80313;SDS011;69628;47.516;18.828;2023-08-06T02:16:47;4.47;;;2.55;;
80313;SDS011;69628;47.516;18.828;2023-08-06T02:17:47;4.60;;;2.80;;
80313;SDS011;69628;47.516;18.828;2023-08-06T02:18:48;4.63;;;2.65;;
80313;SDS011;69628;47.516;18.828;2023-08-06T02:19:48;4.40;;;2.35;;
80313;SDS011;69628;47.516;18.828;2023-08-06T02:20:55;5.00;;;2.85;;
80313;SDS011;69628;47.516;18.828;2023-08-06T02:21:57;4.68;;;2.42;;
80313;SDS011;69628;47.516;18.828;2023-08-06T02:22:57;3.90;;;2.50;;
80313;SDS011;69628;47.516;18.828;2023-08-06T02:23:58;2.45;;;2.13;;
80313;SDS011;69628;47.516;18.828;2023-08-06T02:24:59;3.78;;;2.47;;
80313;SDS011;69628;47.516;18.828;2023-08-06T02:26:02;4.78;;;2.60;;
80313;SDS011;69628;47.516;18.828;2023-08-06T02:27:03;3.72;;;2.33;;
80313;SDS011;69628;47.516;18.828;2023-08-06T02:28:04;4.13;;;2.83;;
80313;SDS011;69628;47.516;18.828;2023-08-06T02:29:04;3.63;;;2.33;;
80313;SDS011;69628;47.516;18.828;2023-08-06T02:30:05;5.70;;;2.88;;
80313;SDS011;69628;47.516;18.828;2023-08-06T02:31:06;4.15;;;2.53;;
80313;SDS011;69628;47.516;18.828;2023-08-06T02:32:07;4.22;;;2.58;;
80313;SDS011;69628;47.516;18.828;2023-08-06T02:33:07;3.55;;;2.42;;
80313;SDS011;69628;47.516;18.828;2023-08-06T02:34:08;3.53;;;2.25;;
80313;SDS011;69628;47.516;18.828;2023-08-06T02:35:08;4.75;;;2.42;;
80313;SDS011;69628;47.516;18.828;2023-08-06T02:36:08;3.50;;;2.38;;
80313;SDS011;69628;47.516;18.828;2023-08-06T02:37:09;3.20;;;2.40;;
80313;SDS011;69628;47.516;18.828;2023-08-06T02:38:09;3.47;;;2.28;;
80313;SDS011;69628;47.516;18.828;2023-08-06T02:39:09;4.63;;;2.83;;
80313;SDS011;69628;47.516;18.828;2023-08-06T02:40:10;3.70;;;2.03;;
80313;SDS011;69628;47.516;18.828;2023-08-06T02:41:11;4.65;;;2.65;;
80313;SDS011;69628;47.516;18.828;2023-08-06T02:42:11;3.90;;;2.30;;
80313;SDS011;69628;47.516;18.828;2023-08-06T02:43:12;2.70;;;2.00;;
80313;SDS011;69628;47.516;18.828;2023-08-06T02:44:13;4.43;;;2.53;;
80313;SDS011;69628;47.516;18.828;2023-08-06T02:45:13;3.45;;;2.33;;
80313;SDS011;69628;47.516;18.828;2023-08-06T02:46:13;4.00;;;2.55;;
80313;SDS011;69628;47.516;18.828;2023-08-06T02:47:14;3.78;;;2.40;;
80313;SDS011;69628;47.516;18.828;2023-08-06T02:48:14;3.88;;;2.60;;
80313;SDS011;69628;47.516;18.828;2023-08-06T02:49:14;4.03;;;2.50;;
80313;SDS011;69628;47.516;18.828;2023-08-06T02:50:15;3.63;;;2.55;;
80313;SDS011;69628;47.516;18.828;2023-08-06T02:51:15;5.90;;;2.65;;
80313;SDS011;69628;47.516;18.828;2023-08-06T02:52:16;4.28;;;2.83;;
80313;SDS011;69628;47.516;18.828;2023-08-06T02:53:16;3.60;;;2.40;;
80313;SDS011;69628;47.516;18.828;2023-08-06T02:54:16;3.15;;;2.20;;
80313;SDS011;69628;47.516;18.828;2023-08-06T02:55:17;3.78;;;2.22;;
80313;SDS011;69628;47.516;18.828;2023-08-06T02:56:18;3.83;;;2.40;;
80313;SDS011;69628;47.516;18.828;2023-08-06T02:57:18;5.82;;;2.53;;
80313;SDS011;69628;47.516;18.828;2023-08-06T02:58:18;4.65;;;3.08;;
80313;SDS011;69628;47.516;18.828;2023-08-06T02:59:22;5.30;;;2.72;;
80313;SDS011;69628;47.516;18.828;2023-08-06T03:00:22;3.40;;;2.53;;
80313;SDS011;69628;47.516;18.828;2023-08-06T03:01:23;4.13;;;2.63;;
80313;SDS011;69628;47.516;18.828;2023-08-06T03:02:23;4.53;;;2.78;;
80313;SDS011;69628;47.516;18.828;2023-08-06T03:03:23;5.85;;;2.72;;
80313;SDS011;69628;47.516;18.828;2023-08-06T03:04:24;8.82;;;3.10;;
80313;SDS011;69628;47.516;18.828;2023-08-06T03:05:24;5.22;;;2.90;;
80313;SDS011;69628;47.516;18.828;2023-08-06T03:06:25;3.10;;;2.30;;
80313;SDS011;69628;47.516;18.828;2023-08-06T03:07:25;4.40;;;3.08;;
80313;SDS011;69628;47.516;18.828;2023-08-06T03:08:26;6.63;;;2.72;;
80313;SDS011;69628;47.516;18.828;2023-08-06T03:09:26;5.13;;;2.92;;
80313;SDS011;69628;47.516;18.828;2023-08-06T03:10:26;5.45;;;2.78;;
80313;SDS011;69628;47.516;18.828;2023-08-06T03:11:27;5.00;;;3.10;;
80313;SDS011;69628;47.516;18.828;2023-08-06T03:12:27;5.30;;;3.33;;
80313;SDS011;69628;47.516;18.828;2023-08-06T03:13:28;5.38;;;3.05;;
80313;SDS011;69628;47.516;18.828;2023-08-06T03:14:28;4.40;;;2.67;;
80313;SDS011;69628;47.516;18.828;2023-08-06T03:15:29;7.03;;;3.10;;
80313;SDS011;69628;47.516;18.828;2023-08-06T03:16:29;7.13;;;3.72;;
80313;SDS011;69628;47.516;18.828;2023-08-06T03:17:30;9.77;;;3.33;;
80313;SDS011;69628;47.516;18.828;2023-08-06T03:18:30;7.78;;;3.53;;
80313;SDS011;69628;47.516;18.828;2023-08-06T03:19:31;8.55;;;3.83;;
80313;SDS011;69628;47.516;18.828;2023-08-06T03:20:34;10.23;;;3.55;;
80313;SDS011;69628;47.516;18.828;2023-08-06T03:21:34;4.05;;;2.78;;
80313;SDS011;69628;47.516;18.828;2023-08-06T03:22:35;5.65;;;3.70;;
80313;SDS011;69628;47.516;18.828;2023-08-06T03:23:35;6.60;;;3.35;;
80313;SDS011;69628;47.516;18.828;2023-08-06T03:24:35;8.88;;;3.22;;
80313;SDS011;69628;47.516;18.828;2023-08-06T03:25:36;6.47;;;3.53;;
80313;SDS011;69628;47.516;18.828;2023-08-06T03:26:39;8.68;;;4.03;;
80313;SDS011;69628;47.516;18.828;2023-08-06T03:27:39;7.22;;;3.70;;
80313;SDS011;69628;47.516;18.828;2023-08-06T03:28:40;7.65;;;3.88;;
80313;SDS011;69628;47.516;18.828;2023-08-06T03:29:40;5.55;;;3.70;;
80313;SDS011;69628;47.516;18.828;2023-08-06T03:30:40;6.03;;;3.72;;
80313;SDS011;69628;47.516;18.828;2023-08-06T03:31:41;6.13;;;3.20;;
80313;SDS011;69628;47.516;18.828;2023-08-06T03:32:41;8.10;;;3.58;;
80313;SDS011;69628;47.516;18.828;2023-08-06T03:33:41;5.95;;;3.75;;
80313;SDS011;69628;47.516;18.828;2023-08-06T03:34:42;11.63;;;3.97;;
80313;SDS011;69628;47.516;18.828;2023-08-06T03:35:43;8.23;;;4.13;;
80313;SDS011;69628;47.516;18.828;2023-08-06T03:36:43;6.22;;;3.78;;
80313;SDS011;69628;47.516;18.828;2023-08-06T03:37:43;7.20;;;3.92;;
80313;SDS011;69628;47.516;18.828;2023-08-06T03:38:44;14.35;;;4.72;;
80313;SDS011;69628;47.516;18.828;2023-08-06T03:39:44;7.70;;;3.67;;
80313;SDS011;69628;47.516;18.828;2023-08-06T03:40:46;5.32;;;3.45;;
80313;SDS011;69628;47.516;18.828;2023-08-06T03:41:46;8.38;;;3.90;;
80313;SDS011;69628;47.516;18.828;2023-08-06T03:42:46;13.68;;;4.80;;
80313;SDS011;69628;47.516;18.828;2023-08-06T03:43:47;9.77;;;4.22;;
80313;SDS011;69628;47.516;18.828;2023-08-06T03:44:47;7.55;;;3.92;;
80313;SDS011;69628;47.516;18.828;2023-08-06T03:45:48;5.65;;;3.92;;
80313;SDS011;69628;47.516;18.828;2023-08-06T03:46:48;7.57;;;3.47;;
80313;SDS011;69628;47.516;18.828;2023-08-06T03:47:48;6.40;;;3.20;;
80313;SDS011;69628;47.516;18.828;2023-08-06T03:48:49;4.95;;;3.03;;
80313;SDS011;69628;47.516;18.828;2023-08-06T03:49:49;4.93;;;3.10;;
80313;SDS011;69628;47.516;18.828;2023-08-06T03:50:49;6.05;;;3.47;;
80313;SDS011;69628;47.516;18.828;2023-08-06T03:51:50;7.93;;;3.22;;
80313;SDS011;69628;47.516;18.828;2023-08-06T03:52:50;5.68;;;3.00;;
80313;SDS011;69628;47.516;18.828;2023-08-06T03:53:51;8.13;;;3.08;;
80313;SDS011;69628;47.516;18.828;2023-08-06T03:54:51;4.53;;;2.65;;
80313;SDS011;69628;47.516;18.828;2023-08-06T03:55:51;3.17;;;2.33;;
80313;SDS011;69628;47.516;18.828;2023-08-06T03:56:52;7.95;;;2.80;;
80313;SDS011;69628;47.516;18.828;2023-08-06T03:57:52;3.33;;;1.98;;
80313;SDS011;69628;47.516;18.828;2023-08-06T03:58:52;3.22;;;2.33;;
80313;SDS011;69628;47.516;18.828;2023-08-06T03:59:53;6.13;;;2.22;;
80313;SDS011;69628;47.516;18.828;2023-08-06T04:00:59;6.10;;;2.40;;
80313;SDS011;69628;47.516;18.828;2023-08-06T04:02:00;3.40;;;2.10;;
80313;SDS011;69628;47.516;18.828;2023-08-06T04:03:01;3.05;;;2.00;;
80313;SDS011;69628;47.516;18.828;2023-08-06T04:04:01;3.05;;;1.50;;
80313;SDS011;69628;47.516;18.828;2023-08-06T04:05:02;2.10;;;1.60;;
80313;SDS011;69628;47.516;18.828;2023-08-06T04:06:02;2.95;;;1.63;;
80313;SDS011;69628;47.516;18.828;2023-08-06T04:07:03;2.58;;;1.80;;
80313;SDS011;69628;47.516;18.828;2023-08-06T04:08:04;2.70;;;1.60;;
80313;SDS011;69628;47.516;18.828;2023-08-06T04:09:04;2.25;;;1.67;;
80313;SDS011;69628;47.516;18.828;2023-08-06T04:10:04;3.00;;;2.00;;
80313;SDS011;69628;47.516;18.828;2023-08-06T04:11:05;2.45;;;1.40;;
80313;SDS011;69628;47.516;18.828;2023-08-06T04:12:05;1.65;;;1.50;;
80313;SDS011;69628;47.516;18.828;2023-08-06T04:13:06;2.38;;;1.55;;
80313;SDS011;69628;47.516;18.828;2023-08-06T04:14:06;5.22;;;1.40;;
80313;SDS011;69628;47.516;18.828;2023-08-06T04:15:07;1.63;;;1.45;;
80313;SDS011;69628;47.516;18.828;2023-08-06T04:16:07;3.90;;;1.75;;
80313;SDS011;69628;47.516;18.828;2023-08-06T04:17:08;2.28;;;1.73;;
80313;SDS011;69628;47.516;18.828;2023-08-06T04:18:08;2.67;;;1.80;;
80313;SDS011;69628;47.516;18.828;2023-08-06T04:19:09;4.32;;;1.70;;
80313;SDS011;69628;47.516;18.828;2023-08-06T04:20:09;2.15;;;1.38;;
80313;SDS011;69628;47.516;18.828;2023-08-06T04:21:10;2.30;;;1.50;;
80313;SDS011;69628;47.516;18.828;2023-08-06T04:22:10;2.50;;;1.63;;
80313;SDS011;69628;47.516;18.828;2023-08-06T04:23:10;8.45;;;1.70;;
80313;SDS011;69628;47.516;18.828;2023-08-06T04:24:11;2.83;;;1.52;;
80313;SDS011;69628;47.516;18.828;2023-08-06T04:25:11;1.48;;;1.23;;
80313;SDS011;69628;47.516;18.828;2023-08-06T04:26:12;1.95;;;1.23;;
80313;SDS011;69628;47.516;18.828;2023-08-06T04:27:12;2.30;;;1.55;;
80313;SDS011;69628;47.516;18.828;2023-08-06T04:28:13;1.77;;;1.25;;
80313;SDS011;69628;47.516;18.828;2023-08-06T04:29:14;1.40;;;1.30;;
80313;SDS011;69628;47.516;18.828;2023-08-06T04:30:14;1.95;;;1.50;;
80313;SDS011;69628;47.516;18.828;2023-08-06T04:31:15;2.35;;;1.15;;
80313;SDS011;69628;47.516;18.828;2023-08-06T04:32:15;1.63;;;1.13;;
80313;SDS011;69628;47.516;18.828;2023-08-06T04:33:16;0.70;;;0.68;;
80313;SDS011;69628;47.516;18.828;2023-08-06T04:34:16;1.02;;;1.00;;
80313;SDS011;69628;47.516;18.828;2023-08-06T04:35:16;1.20;;;0.90;;
80313;SDS011;69628;47.516;18.828;2023-08-06T04:36:17;1.10;;;1.00;;
80313;SDS011;69628;47.516;18.828;2023-08-06T04:37:17;1.23;;;1.00;;
80313;SDS011;69628;47.516;18.828;2023-08-06T04:38:18;1.20;;;1.10;;
80313;SDS011;69628;47.516;18.828;2023-08-06T04:39:18;0.75;;;0.75;;
80313;SDS011;69628;47.516;18.828;2023-08-06T04:40:18;0.70;;;0.70;;
80313;SDS011;69628;47.516;18.828;2023-08-06T04:41:19;1.38;;;1.10;;
80313;SDS011;69628;47.516;18.828;2023-08-06T04:42:19;2.47;;;0.75;;
80313;SDS011;69628;47.516;18.828;2023-08-06T04:43:20;2.33;;;1.02;;
80313;SDS011;69628;47.516;18.828;2023-08-06T04:44:20;1.10;;;1.00;;
80313;SDS011;69628;47.516;18.828;2023-08-06T04:45:20;0.65;;;0.65;;
80313;SDS011;69628;47.516;18.828;2023-08-06T04:46:21;3.13;;;0.50;;
80313;SDS011;69628;47.516;18.828;2023-08-06T04:47:21;1.45;;;0.95;;
80313;SDS011;69628;47.516;18.828;2023-08-06T04:48:22;0.63;;;0.50;;
80313;SDS011;69628;47.516;18.828;2023-08-06T04:49:22;0.90;;;0.80;;
80313;SDS011;69628;47.516;18.828;2023-08-06T04:50:23;0.75;;;0.52;;
80313;SDS011;69628;47.516;18.828;2023-08-06T04:51:23;0.20;;;0.20;;
80313;SDS011;69628;47.516;18.828;2023-08-06T04:52:24;0.40;;;0.40;;
80313;SDS011;69628;47.516;18.828;2023-08-06T04:53:27;0.52;;;0.52;;
80313;SDS011;69628;47.516;18.828;2023-08-06T04:54:28;3.53;;;0.47;;
80313;SDS011;69628;47.516;18.828;2023-08-06T04:55:28;0.38;;;0.28;;
80313;SDS011;69628;47.516;18.828;2023-08-06T04:56:28;0.20;;;0.20;;
80313;SDS011;69628;47.516;18.828;2023-08-06T04:57:29;0.30;;;0.30;;
80313;SDS011;69628;47.516;18.828;2023-08-06T04:58:29;0.50;;;0.40;;
80313;SDS011;69628;47.516;18.828;2023-08-06T04:59:30;0.30;;;0.30;;
80313;SDS011;69628;47.516;18.828;2023-08-06T05:00:30;0.43;;;0.40;;
80313;SDS011;69628;47.516;18.828;2023-08-06T05:01:31;0.43;;;0.43;;
80313;SDS011;69628;47.516;18.828;2023-08-06T05:02:31;0.82;;;0.60;;
80313;SDS011;69628;47.516;18.828;2023-08-06T05:03:34;0.30;;;0.30;;
80313;SDS011;69628;47.516;18.828;2023-08-06T05:04:35;0.30;;;0.30;;
80313;SDS011;69628;47.516;18.828;2023-08-06T05:05:35;0.00;;;0.00;;
80313;SDS011;69628;47.516;18.828;2023-08-06T05:06:36;0.25;;;0.25;;
80313;SDS011;69628;47.516;18.828;2023-08-06T05:07:38;0.43;;;0.43;;
80313;SDS011;69628;47.516;18.828;2023-08-06T05:08:38;0.40;;;0.35;;
80313;SDS011;69628;47.516;18.828;2023-08-06T05:09:39;7.57;;;0.40;;
80313;SDS011;69628;47.516;18.828;2023-08-06T05:10:41;0.10;;;0.10;;
80313;SDS011;69628;47.516;18.828;2023-08-06T05:11:42;0.08;;;0.08;;
80313;SDS011;69628;47.516;18.828;2023-08-06T05:12:43;0.35;;;0.28;;
80313;SDS011;69628;47.516;18.828;2023-08-06T05:13:44;0.20;;;0.20;;
80313;SDS011;69628;47.516;18.828;2023-08-06T05:14:44;0.17;;;0.17;;
80313;SDS011;69628;47.516;18.828;2023-08-06T05:15:45;5.18;;;1.33;;
80313;SDS011;69628;47.516;18.828;2023-08-06T05:16:46;0.20;;;0.20;;
80313;SDS011;69628;47.516;18.828;2023-08-06T05:17:46;0.28;;;0.13;;
80313;SDS011;69628;47.516;18.828;2023-08-06T05:18:47;1.92;;;0.38;;
80313;SDS011;69628;47.516;18.828;2023-08-06T05:19:47;0.43;;;0.32;;
80313;SDS011;69628;47.516;18.828;2023-08-06T05:20:48;0.10;;;0.10;;
80313;SDS011;69628;47.516;18.828;2023-08-06T05:21:48;0.35;;;0.20;;
80313;SDS011;69628;47.516;18.828;2023-08-06T05:22:48;0.05;;;0.05;;
80313;SDS011;69628;47.516;18.828;2023-08-06T05:23:49;0.73;;;0.22;;
80313;SDS011;69628;47.516;18.828;2023-08-06T05:24:49;0.35;;;0.20;;
80313;SDS011;69628;47.516;18.828;2023-08-06T05:25:50;0.03;;;0.03;;
80313;SDS011;69628;47.516;18.828;2023-08-06T05:26:50;0.17;;;0.08;;
80313;SDS011;69628;47.516;18.828;2023-08-06T05:27:50;4.38;;;0.22;;
80313;SDS011;69628;47.516;18.828;2023-08-06T05:28:51;0.32;;;0.32;;
80313;SDS011;69628;47.516;18.828;2023-08-06T05:29:54;0.10;;;0.10;;
80313;SDS011;69628;47.516;18.828;2023-08-06T05:30:55;1.13;;;0.32;;
80313;SDS011;69628;47.516;18.828;2023-08-06T05:31:55;0.20;;;0.20;;
80313;SDS011;69628;47.516;18.828;2023-08-06T05:32:56;0.13;;;0.08;;
80313;SDS011;69628;47.516;18.828;2023-08-06T05:33:56;0.10;;;0.10;;
80313;SDS011;69628;47.516;18.828;2023-08-06T05:34:57;0.20;;;0.20;;
80313;SDS011;69628;47.516;18.828;2023-08-06T05:35:57;0.30;;;0.30;;
80313;SDS011;69628;47.516;18.828;2023-08-06T05:36:57;0.20;;;0.20;;
80313;SDS011;69628;47.516;18.828;2023-08-06T05:37:58;0.15;;;0.15;;
80313;SDS011;69628;47.516;18.828;2023-08-06T05:38:58;0.28;;;0.28;;
80313;SDS011;69628;47.516;18.828;2023-08-06T05:39:59;0.20;;;0.20;;
80313;SDS011;69628;47.516;18.828;2023-08-06T05:40:59;0.50;;;0.50;;
80313;SDS011;69628;47.516;18.828;2023-08-06T05:41:59;0.30;;;0.30;;
80313;SDS011;69628;47.516;18.828;2023-08-06T05:43:00;0.40;;;0.38;;
80313;SDS011;69628;47.516;18.828;2023-08-06T05:44:00;0.10;;;0.10;;
80313;SDS011;69628;47.516;18.828;2023-08-06T05:45:01;0.40;;;0.30;;
80313;SDS011;69628;47.516;18.828;2023-08-06T05:46:01;0.40;;;0.40;;
80313;SDS011;69628;47.516;18.828;2023-08-06T05:47:01;0.38;;;0.38;;
80313;SDS011;69628;47.516;18.828;2023-08-06T05:48:02;0.35;;;0.35;;
80313;SDS011;69628;47.516;18.828;2023-08-06T05:49:03;0.40;;;0.40;;
80313;SDS011;69628;47.516;18.828;2023-08-06T05:50:03;0.50;;;0.50;;
80313;SDS011;69628;47.516;18.828;2023-08-06T05:51:04;0.57;;;0.57;;
80313;SDS011;69628;47.516;18.828;2023-08-06T05:52:04;0.40;;;0.40;;
80313;SDS011;69628;47.516;18.828;2023-08-06T05:53:06;0.28;;;0.28;;
80313;SDS011;69628;47.516;18.828;2023-08-06T05:54:06;0.28;;;0.28;;
80313;SDS011;69628;47.516;18.828;2023-08-06T05:55:07;0.40;;;0.40;;
80313;SDS011;69628;47.516;18.828;2023-08-06T05:56:08;0.35;;;0.35;;
80313;SDS011;69628;47.516;18.828;2023-08-06T05:57:08;0.40;;;0.40;;
80313;SDS011;69628;47.516;18.828;2023-08-06T05:58:08;0.43;;;0.43;;
80313;SDS011;69628;47.516;18.828;2023-08-06T05:59:09;0.60;;;0.60;;
80313;SDS011;69628;47.516;18.828;2023-08-06T06:00:09;0.50;;;0.50;;
80313;SDS011;69628;47.516;18.828;2023-08-06T06:01:10;0.40;;;0.40;;
80313;SDS011;69628;47.516;18.828;2023-08-06T06:02:11;0.85;;;0.40;;
80313;SDS011;69628;47.516;18.828;2023-08-06T06:03:11;0.45;;;0.45;;
80313;SDS011;69628;47.516;18.828;2023-08-06T06:04:11;0.38;;;0.38;;
80313;SDS011;69628;47.516;18.828;2023-08-06T06:05:12;0.50;;;0.50;;
80313;SDS011;69628;47.516;18.828;2023-08-06T06:06:12;0.50;;;0.50;;
80313;SDS011;69628;47.516;18.828;2023-08-06T06:07:13;0.73;;;0.73;;
80313;SDS011;69628;47.516;18.828;2023-08-06T06:08:14;0.60;;;0.60;;